sensor_id;sensor_type;location;lat;lon;timestamp;pressure;altitude;pressure_sealevel;temperature;humidity
34103;BME280;20381;54.498;18.206;2023-09-07T00:02:15;100743.86;;;16.41;100.00
34103;BME280;20381;54.498;18.206;2023-09-07T00:04:52;100741.52;;;16.36;100.00
34103;BME280;20381;54.498;18.206;2023-09-07T00:07:21;100745.78;;;16.28;100.00
34103;BME280;20381;54.498;18.206;2023-09-07T00:09:50;100746.43;;;16.23;100.00
34103;BME280;20381;54.498;18.206;2023-09-07T00:12:18;100743.70;;;16.18;100.00
34103;BME280;20381;54.498;18.206;2023-09-07T00:14:46;100746.48;;;16.09;100.00
34103;BME280;20381;54.498;18.206;2023-09-07T00:17:15;100744.33;;;15.97;100.00
34103;BME280;20381;54.498;18.206;2023-09-07T00:19:44;100748.20;;;15.83;100.00
34103;BME280;20381;54.498;18.206;2023-09-07T00:22:15;100751.79;;;15.75;100.00
34103;BME280;20381;54.498;18.206;2023-09-07T00:24:46;100746.38;;;15.67;100.00
34103;BME280;20381;54.498;18.206;2023-09-07T00:27:14;100744.48;;;15.60;100.00
34103;BME280;20381;54.498;18.206;2023-09-07T00:29:43;100742.09;;;15.55;100.00
34103;BME280;20381;54.498;18.206;2023-09-07T00:32:11;100742.65;;;15.51;100.00
34103;BME280;20381;54.498;18.206;2023-09-07T00:37:40;100745.02;;;15.42;100.00
34103;BME280;20381;54.498;18.206;2023-09-07T00:40:09;100744.27;;;15.36;100.00
34103;BME280;20381;54.498;18.206;2023-09-07T00:42:38;100744.73;;;15.31;100.00
34103;BME280;20381;54.498;18.206;2023-09-07T00:45:07;100746.76;;;15.29;100.00
34103;BME280;20381;54.498;18.206;2023-09-07T00:47:36;100744.25;;;15.33;100.00
34103;BME280;20381;54.498;18.206;2023-09-07T00:50:05;100743.81;;;15.45;100.00
34103;BME280;20381;54.498;18.206;2023-09-07T00:52:36;100744.20;;;15.58;100.00
34103;BME280;20381;54.498;18.206;2023-09-07T00:55:09;100745.60;;;15.69;100.00
34103;BME280;20381;54.498;18.206;2023-09-07T00:57:39;100743.92;;;15.81;100.00
34103;BME280;20381;54.498;18.206;2023-09-07T01:00:11;100745.61;;;15.89;100.00
34103;BME280;20381;54.498;18.206;2023-09-07T01:02:40;100747.08;;;15.95;100.00
34103;BME280;20381;54.498;18.206;2023-09-07T01:05:11;100747.09;;;16.01;100.00
34103;BME280;20381;54.498;18.206;2023-09-07T01:07:59;100748.40;;;16.09;100.00
34103;BME280;20381;54.498;18.206;2023-09-07T01:10:31;100750.32;;;16.19;100.00
34103;BME280;20381;54.498;18.206;2023-09-07T01:13:00;100753.39;;;16.24;100.00
34103;BME280;20381;54.498;18.206;2023-09-07T01:15:29;100752.38;;;16.30;100.00
34103;BME280;20381;54.498;18.206;2023-09-07T01:17:58;100751.64;;;16.33;100.00
34103;BME280;20381;54.498;18.206;2023-09-07T01:20:48;100751.69;;;16.36;100.00
34103;BME280;20381;54.498;18.206;2023-09-07T01:23:17;100751.02;;;16.39;100.00
34103;BME280;20381;54.498;18.206;2023-09-07T01:25:47;100751.35;;;16.42;100.00
34103;BME280;20381;54.498;18.206;2023-09-07T01:28:19;100754.09;;;16.44;100.00
34103;BME280;20381;54.498;18.206;2023-09-07T01:30:51;100754.27;;;16.40;100.00
34103;BME280;20381;54.498;18.206;2023-09-07T01:33:20;100756.70;;;16.41;100.00
34103;BME280;20381;54.498;18.206;2023-09-07T01:35:49;100757.59;;;16.47;100.00
34103;BME280;20381;54.498;18.206;2023-09-07T01:38:18;100762.69;;;16.53;100.00
34103;BME280;20381;54.498;18.206;2023-09-07T01:40:47;100763.20;;;16.57;100.00
34103;BME280;20381;54.498;18.206;2023-09-07T01:43:16;100765.15;;;16.66;100.00
34103;BME280;20381;54.498;18.206;2023-09-07T01:45:44;100766.35;;;16.72;100.00
34103;BME280;20381;54.498;18.206;2023-09-07T01:48:13;100763.90;;;16.79;100.00
34103;BME280;20381;54.498;18.206;2023-09-07T01:50:42;100763.54;;;16.86;100.00
34103;BME280;20381;54.498;18.206;2023-09-07T01:53:13;100763.48;;;16.90;100.00
34103;BME280;20381;54.498;18.206;2023-09-07T01:55:41;100762.71;;;16.94;100.00
34103;BME280;20381;54.498;18.206;2023-09-07T01:58:10;100757.95;;;16.97;100.00
34103;BME280;20381;54.498;18.206;2023-09-07T02:00:39;100758.25;;;17.01;100.00
34103;BME280;20381;54.498;18.206;2023-09-07T02:03:07;100757.86;;;17.02;100.00
34103;BME280;20381;54.498;18.206;2023-09-07T02:05:36;100759.97;;;17.05;100.00
34103;BME280;20381;54.498;18.206;2023-09-07T02:08:05;100759.42;;;17.08;100.00
34103;BME280;20381;54.498;18.206;2023-09-07T02:10:34;100758.37;;;17.08;100.00
34103;BME280;20381;54.498;18.206;2023-09-07T02:13:02;100757.98;;;17.12;100.00
34103;BME280;20381;54.498;18.206;2023-09-07T02:15:32;100756.39;;;17.15;100.00
34103;BME280;20381;54.498;18.206;2023-09-07T02:18:01;100763.98;;;17.17;100.00
34103;BME280;20381;54.498;18.206;2023-09-07T02:20:33;100764.95;;;17.19;100.00
34103;BME280;20381;54.498;18.206;2023-09-07T02:23:01;100763.98;;;17.20;100.00
34103;BME280;20381;54.498;18.206;2023-09-07T02:25:30;100764.09;;;17.22;100.00
34103;BME280;20381;54.498;18.206;2023-09-07T02:27:59;100766.48;;;17.23;100.00
34103;BME280;20381;54.498;18.206;2023-09-07T02:30:28;100764.91;;;17.26;100.00
34103;BME280;20381;54.498;18.206;2023-09-07T02:32:57;100766.36;;;17.26;100.00
34103;BME280;20381;54.498;18.206;2023-09-07T02:35:25;100761.94;;;17.22;100.00
34103;BME280;20381;54.498;18.206;2023-09-07T02:37:54;100758.17;;;17.14;100.00
34103;BME280;20381;54.498;18.206;2023-09-07T02:40:23;100761.47;;;17.00;100.00
34103;BME280;20381;54.498;18.206;2023-09-07T02:42:52;100760.06;;;16.88;100.00
34103;BME280;20381;54.498;18.206;2023-09-07T02:45:21;100760.88;;;16.80;100.00
34103;BME280;20381;54.498;18.206;2023-09-07T02:47:50;100759.27;;;16.70;100.00
34103;BME280;20381;54.498;18.206;2023-09-07T02:50:20;100757.80;;;16.65;100.00
34103;BME280;20381;54.498;18.206;2023-09-07T02:52:49;100753.54;;;16.60;100.00
34103;BME280;20381;54.498;18.206;2023-09-07T02:55:18;100755.17;;;16.56;100.00
34103;BME280;20381;54.498;18.206;2023-09-07T02:57:46;100757.61;;;16.53;100.00
34103;BME280;20381;54.498;18.206;2023-09-07T03:00:15;100755.73;;;16.49;100.00
34103;BME280;20381;54.498;18.206;2023-09-07T03:02:46;100753.98;;;16.49;100.00
34103;BME280;20381;54.498;18.206;2023-09-07T03:05:15;100747.86;;;16.39;100.00
34103;BME280;20381;54.498;18.206;2023-09-07T03:07:46;100746.37;;;16.27;100.00
34103;BME280;20381;54.498;18.206;2023-09-07T03:10:15;100753.41;;;16.17;100.00
34103;BME280;20381;54.498;18.206;2023-09-07T03:12:43;100749.13;;;16.02;100.00
34103;BME280;20381;54.498;18.206;2023-09-07T03:15:12;100748.50;;;15.95;100.00
34103;BME280;20381;54.498;18.206;2023-09-07T03:17:41;100749.55;;;15.87;100.00
34103;BME280;20381;54.498;18.206;2023-09-07T03:20:10;100754.30;;;15.80;100.00
34103;BME280;20381;54.498;18.206;2023-09-07T03:22:46;100749.85;;;15.72;100.00
34103;BME280;20381;54.498;18.206;2023-09-07T03:25:15;100752.02;;;15.67;100.00
34103;BME280;20381;54.498;18.206;2023-09-07T03:27:44;100751.65;;;15.64;100.00
34103;BME280;20381;54.498;18.206;2023-09-07T03:30:13;100753.43;;;15.60;100.00
34103;BME280;20381;54.498;18.206;2023-09-07T03:32:42;100755.30;;;15.54;100.00
34103;BME280;20381;54.498;18.206;2023-09-07T03:35:11;100760.52;;;15.45;100.00
34103;BME280;20381;54.498;18.206;2023-09-07T03:37:42;100758.71;;;15.39;100.00
34103;BME280;20381;54.498;18.206;2023-09-07T03:40:11;100761.69;;;15.35;100.00
34103;BME280;20381;54.498;18.206;2023-09-07T03:42:40;100763.54;;;15.34;100.00
34103;BME280;20381;54.498;18.206;2023-09-07T03:45:09;100763.81;;;15.32;100.00
34103;BME280;20381;54.498;18.206;2023-09-07T03:47:38;100762.74;;;15.29;100.00
34103;BME280;20381;54.498;18.206;2023-09-07T03:50:08;100765.61;;;15.27;100.00
34103;BME280;20381;54.498;18.206;2023-09-07T03:52:37;100757.77;;;15.26;100.00
34103;BME280;20381;54.498;18.206;2023-09-07T03:55:06;100757.30;;;15.25;100.00
34103;BME280;20381;54.498;18.206;2023-09-07T03:57:35;100756.18;;;15.26;100.00
34103;BME280;20381;54.498;18.206;2023-09-07T04:00:06;100759.27;;;15.24;100.00
34103;BME280;20381;54.498;18.206;2023-09-07T04:02:36;100758.86;;;15.19;100.00
34103;BME280;20381;54.498;18.206;2023-09-07T04:05:06;100755.47;;;15.13;100.00
34103;BME280;20381;54.498;18.206;2023-09-07T04:07:36;100757.08;;;15.09;100.00
34103;BME280;20381;54.498;18.206;2023-09-07T04:10:05;100755.45;;;15.06;100.00
34103;BME280;20381;54.498;18.206;2023-09-07T04:12:34;100756.16;;;15.06;100.00
34103;BME280;20381;54.498;18.206;2023-09-07T04:15:04;100758.96;;;15.09;100.00
34103;BME280;20381;54.498;18.206;2023-09-07T04:17:33;100760.99;;;15.15;100.00
34103;BME280;20381;54.498;18.206;2023-09-07T04:20:09;100768.33;;;15.19;100.00
34103;BME280;20381;54.498;18.206;2023-09-07T04:22:41;100764.80;;;15.26;100.00
34103;BME280;20381;54.498;18.206;2023-09-07T04:25:10;100759.70;;;15.37;100.00
34103;BME280;20381;54.498;18.206;2023-09-07T04:27:39;100760.02;;;15.48;100.00
34103;BME280;20381;54.498;18.206;2023-09-07T04:30:11;100763.39;;;15.58;100.00
34103;BME280;20381;54.498;18.206;2023-09-07T04:32:39;100766.58;;;15.67;100.00
34103;BME280;20381;54.498;18.206;2023-09-07T04:35:08;100762.94;;;15.77;100.00
34103;BME280;20381;54.498;18.206;2023-09-07T04:37:37;100768.73;;;15.87;100.00
34103;BME280;20381;54.498;18.206;2023-09-07T04:40:06;100770.86;;;15.93;100.00
34103;BME280;20381;54.498;18.206;2023-09-07T04:42:35;100775.77;;;16.00;100.00
34103;BME280;20381;54.498;18.206;2023-09-07T04:45:05;100777.45;;;16.05;100.00
34103;BME280;20381;54.498;18.206;2023-09-07T04:47:34;100777.81;;;16.08;100.00
34103;BME280;20381;54.498;18.206;2023-09-07T04:50:03;100778.40;;;16.10;100.00
34103;BME280;20381;54.498;18.206;2023-09-07T04:52:32;100780.29;;;16.14;100.00
34103;BME280;20381;54.498;18.206;2023-09-07T04:55:03;100784.11;;;16.21;100.00
34103;BME280;20381;54.498;18.206;2023-09-07T04:57:32;100784.27;;;16.24;100.00
34103;BME280;20381;54.498;18.206;2023-09-07T05:00:01;100785.30;;;16.28;100.00
34103;BME280;20381;54.498;18.206;2023-09-07T05:02:32;100786.73;;;16.34;100.00
34103;BME280;20381;54.498;18.206;2023-09-07T05:05:06;100788.19;;;16.40;100.00
34103;BME280;20381;54.498;18.206;2023-09-07T05:07:35;100792.73;;;16.41;100.00
34103;BME280;20381;54.498;18.206;2023-09-07T05:10:04;100795.89;;;16.47;100.00
34103;BME280;20381;54.498;18.206;2023-09-07T05:12:35;100792.27;;;16.49;100.00
34103;BME280;20381;54.498;18.206;2023-09-07T05:15:05;100793.23;;;16.54;100.00
34103;BME280;20381;54.498;18.206;2023-09-07T05:17:35;100792.23;;;16.59;100.00
34103;BME280;20381;54.498;18.206;2023-09-07T05:20:04;100791.13;;;16.63;100.00
34103;BME280;20381;54.498;18.206;2023-09-07T05:22:33;100795.90;;;16.66;100.00
34103;BME280;20381;54.498;18.206;2023-09-07T05:25:05;100796.56;;;16.73;100.00
34103;BME280;20381;54.498;18.206;2023-09-07T05:27:35;100795.98;;;16.81;100.00
34103;BME280;20381;54.498;18.206;2023-09-07T05:30:05;100794.23;;;16.94;100.00
34103;BME280;20381;54.498;18.206;2023-09-07T05:32:34;100800.13;;;17.01;100.00
34103;BME280;20381;54.498;18.206;2023-09-07T05:35:03;100800.08;;;17.05;100.00
34103;BME280;20381;54.498;18.206;2023-09-07T05:37:32;100798.96;;;17.18;100.00
34103;BME280;20381;54.498;18.206;2023-09-07T05:40:01;100804.05;;;17.31;100.00
34103;BME280;20381;54.498;18.206;2023-09-07T05:42:31;100805.14;;;17.30;100.00
34103;BME280;20381;54.498;18.206;2023-09-07T05:45:00;100805.12;;;17.31;100.00
34103;BME280;20381;54.498;18.206;2023-09-07T05:47:30;100806.33;;;17.34;100.00
34103;BME280;20381;54.498;18.206;2023-09-07T05:50:02;100810.95;;;17.39;100.00
34103;BME280;20381;54.498;18.206;2023-09-07T05:52:31;100808.08;;;17.43;100.00
34103;BME280;20381;54.498;18.206;2023-09-07T05:54:59;100805.27;;;17.43;100.00
34103;BME280;20381;54.498;18.206;2023-09-07T05:57:28;100806.48;;;17.49;100.00
34103;BME280;20381;54.498;18.206;2023-09-07T05:59:57;100808.12;;;17.57;100.00
34103;BME280;20381;54.498;18.206;2023-09-07T06:02:26;100813.59;;;17.63;100.00
34103;BME280;20381;54.498;18.206;2023-09-07T06:04:58;100812.09;;;17.71;100.00
34103;BME280;20381;54.498;18.206;2023-09-07T06:07:26;100815.13;;;17.79;100.00
34103;BME280;20381;54.498;18.206;2023-09-07T06:09:55;100817.77;;;17.82;100.00
34103;BME280;20381;54.498;18.206;2023-09-07T06:12:26;100813.05;;;17.90;100.00
34103;BME280;20381;54.498;18.206;2023-09-07T06:14:55;100811.21;;;17.97;100.00
34103;BME280;20381;54.498;18.206;2023-09-07T06:17:24;100811.92;;;18.03;100.00
34103;BME280;20381;54.498;18.206;2023-09-07T06:19:53;100814.77;;;18.08;100.00
34103;BME280;20381;54.498;18.206;2023-09-07T06:22:24;100816.29;;;18.09;100.00
34103;BME280;20381;54.498;18.206;2023-09-07T06:24:53;100820.27;;;18.14;100.00
34103;BME280;20381;54.498;18.206;2023-09-07T06:27:21;100823.15;;;18.16;100.00
34103;BME280;20381;54.498;18.206;2023-09-07T06:29:50;100823.50;;;18.19;100.00
34103;BME280;20381;54.498;18.206;2023-09-07T06:32:19;100822.21;;;18.28;100.00
34103;BME280;20381;54.498;18.206;2023-09-07T06:34:47;100829.91;;;18.32;100.00
34103;BME280;20381;54.498;18.206;2023-09-07T06:37:17;100831.70;;;18.37;100.00
34103;BME280;20381;54.498;18.206;2023-09-07T06:39:46;100838.74;;;18.48;100.00
34103;BME280;20381;54.498;18.206;2023-09-07T06:42:14;100840.93;;;18.58;100.00
34103;BME280;20381;54.498;18.206;2023-09-07T06:44:44;100842.01;;;18.64;100.00
34103;BME280;20381;54.498;18.206;2023-09-07T06:47:13;100845.60;;;18.80;100.00
34103;BME280;20381;54.498;18.206;2023-09-07T06:49:42;100841.77;;;18.87;100.00
34103;BME280;20381;54.498;18.206;2023-09-07T06:52:10;100842.61;;;18.96;100.00
34103;BME280;20381;54.498;18.206;2023-09-07T06:54:39;100839.45;;;19.01;100.00
34103;BME280;20381;54.498;18.206;2023-09-07T06:57:10;100843.74;;;19.22;100.00
34103;BME280;20381;54.498;18.206;2023-09-07T07:00:23;100842.20;;;19.40;100.00
34103;BME280;20381;54.498;18.206;2023-09-07T07:02:52;100843.06;;;19.54;100.00
34103;BME280;20381;54.498;18.206;2023-09-07T07:05:46;100839.70;;;19.57;100.00
34103;BME280;20381;54.498;18.206;2023-09-07T07:08:17;100841.73;;;19.55;100.00
34103;BME280;20381;54.498;18.206;2023-09-07T07:10:52;100839.33;;;19.62;100.00
34103;BME280;20381;54.498;18.206;2023-09-07T07:13:21;100840.55;;;19.81;100.00
34103;BME280;20381;54.498;18.206;2023-09-07T07:15:50;100839.64;;;19.66;100.00
34103;BME280;20381;54.498;18.206;2023-09-07T07:18:18;100841.10;;;19.59;100.00
34103;BME280;20381;54.498;18.206;2023-09-07T07:20:47;100842.38;;;19.54;100.00
34103;BME280;20381;54.498;18.206;2023-09-07T07:23:15;100842.16;;;19.54;100.00
34103;BME280;20381;54.498;18.206;2023-09-07T07:25:44;100843.67;;;19.90;100.00
34103;BME280;20381;54.498;18.206;2023-09-07T07:28:13;100846.17;;;20.32;100.00
34103;BME280;20381;54.498;18.206;2023-09-07T07:30:41;100851.44;;;20.71;100.00
34103;BME280;20381;54.498;18.206;2023-09-07T07:33:10;100850.73;;;21.10;100.00
34103;BME280;20381;54.498;18.206;2023-09-07T07:35:42;100851.92;;;21.49;100.00
34103;BME280;20381;54.498;18.206;2023-09-07T07:38:11;100853.04;;;21.44;100.00
34103;BME280;20381;54.498;18.206;2023-09-07T07:40:44;100853.91;;;21.27;100.00
34103;BME280;20381;54.498;18.206;2023-09-07T07:43:14;100859.79;;;21.46;100.00
34103;BME280;20381;54.498;18.206;2023-09-07T07:45:43;100862.98;;;21.34;100.00
34103;BME280;20381;54.498;18.206;2023-09-07T07:48:12;100854.67;;;21.74;100.00
34103;BME280;20381;54.498;18.206;2023-09-07T07:50:41;100854.70;;;22.13;100.00
34103;BME280;20381;54.498;18.206;2023-09-07T07:53:10;100852.74;;;22.29;100.00
34103;BME280;20381;54.498;18.206;2023-09-07T07:55:39;100857.40;;;22.40;100.00
34103;BME280;20381;54.498;18.206;2023-09-07T07:58:09;100853.37;;;22.88;100.00
34103;BME280;20381;54.498;18.206;2023-09-07T08:00:38;100857.69;;;24.48;100.00
34103;BME280;20381;54.498;18.206;2023-09-07T08:03:09;100860.55;;;24.54;98.05
34103;BME280;20381;54.498;18.206;2023-09-07T08:05:39;100856.52;;;24.45;98.61
34103;BME280;20381;54.498;18.206;2023-09-07T08:08:08;100854.63;;;26.46;100.00
34103;BME280;20381;54.498;18.206;2023-09-07T08:10:37;100853.30;;;28.59;99.21
34103;BME280;20381;54.498;18.206;2023-09-07T08:13:07;100852.21;;;29.12;96.37
34103;BME280;20381;54.498;18.206;2023-09-07T08:15:36;100848.26;;;29.85;95.75
34103;BME280;20381;54.498;18.206;2023-09-07T08:18:04;100844.11;;;31.11;93.74
34103;BME280;20381;54.498;18.206;2023-09-07T08:20:33;100848.95;;;31.65;87.24
34103;BME280;20381;54.498;18.206;2023-09-07T08:23:02;100850.00;;;31.03;82.78
34103;BME280;20381;54.498;18.206;2023-09-07T08:25:35;100847.30;;;30.72;80.30
34103;BME280;20381;54.498;18.206;2023-09-07T08:28:04;100850.27;;;31.80;85.78
34103;BME280;20381;54.498;18.206;2023-09-07T08:30:34;100855.98;;;34.28;85.63
34103;BME280;20381;54.498;18.206;2023-09-07T08:33:04;100860.95;;;35.13;75.11
34103;BME280;20381;54.498;18.206;2023-09-07T08:35:35;100854.41;;;35.13;73.35
34103;BME280;20381;54.498;18.206;2023-09-07T08:38:06;100852.13;;;35.84;72.99
34103;BME280;20381;54.498;18.206;2023-09-07T08:40:38;100851.04;;;36.76;70.27
34103;BME280;20381;54.498;18.206;2023-09-07T08:43:09;100847.23;;;36.11;63.47
34103;BME280;20381;54.498;18.206;2023-09-07T08:45:49;100848.48;;;35.69;61.14
34103;BME280;20381;54.498;18.206;2023-09-07T08:48:19;100849.47;;;35.51;54.97
34103;BME280;20381;54.498;18.206;2023-09-07T08:50:48;100848.90;;;34.21;46.40
34103;BME280;20381;54.498;18.206;2023-09-07T08:53:19;100852.90;;;33.72;48.16
34103;BME280;20381;54.498;18.206;2023-09-07T08:55:51;100856.48;;;34.86;46.17
34103;BME280;20381;54.498;18.206;2023-09-07T08:58:19;100858.64;;;34.48;43.63
34103;BME280;20381;54.498;18.206;2023-09-07T09:00:48;100861.52;;;35.14;44.42
34103;BME280;20381;54.498;18.206;2023-09-07T09:03:18;100854.02;;;35.76;44.08
34103;BME280;20381;54.498;18.206;2023-09-07T09:05:50;100854.41;;;36.25;43.94
34103;BME280;20381;54.498;18.206;2023-09-07T09:08:19;100852.89;;;36.32;41.93
34103;BME280;20381;54.498;18.206;2023-09-07T09:11:26;100852.31;;;36.10;40.33
34103;BME280;20381;54.498;18.206;2023-09-07T09:13:56;100854.34;;;35.56;38.55
34103;BME280;20381;54.498;18.206;2023-09-07T09:16:25;100850.39;;;33.75;37.18
34103;BME280;20381;54.498;18.206;2023-09-07T09:18:58;100847.64;;;32.93;37.92
34103;BME280;20381;54.498;18.206;2023-09-07T09:21:28;100847.04;;;33.21;38.68
34103;BME280;20381;54.498;18.206;2023-09-07T09:23:57;100843.05;;;33.38;38.91
34103;BME280;20381;54.498;18.206;2023-09-07T09:26:26;100844.00;;;34.36;38.75
34103;BME280;20381;54.498;18.206;2023-09-07T09:28:59;100840.81;;;35.12;38.53
34103;BME280;20381;54.498;18.206;2023-09-07T09:31:29;100840.89;;;36.61;38.73
34103;BME280;20381;54.498;18.206;2023-09-07T09:33:58;100841.02;;;38.43;38.26
34103;BME280;20381;54.498;18.206;2023-09-07T09:36:33;100844.45;;;39.03;35.25
34103;BME280;20381;54.498;18.206;2023-09-07T09:39:02;100834.29;;;39.11;34.05
34103;BME280;20381;54.498;18.206;2023-09-07T09:41:33;100829.36;;;39.72;33.59
34103;BME280;20381;54.498;18.206;2023-09-07T09:44:06;100839.02;;;39.29;31.49
34103;BME280;20381;54.498;18.206;2023-09-07T09:46:36;100834.05;;;39.77;31.88
34103;BME280;20381;54.498;18.206;2023-09-07T09:49:08;100834.65;;;40.80;31.25
34103;BME280;20381;54.498;18.206;2023-09-07T09:51:39;100833.89;;;40.06;29.66
34103;BME280;20381;54.498;18.206;2023-09-07T09:54:11;100833.98;;;38.92;29.28
34103;BME280;20381;54.498;18.206;2023-09-07T09:56:41;100826.89;;;37.22;29.09
34103;BME280;20381;54.498;18.206;2023-09-07T09:59:09;100824.27;;;36.90;30.25
34103;BME280;20381;54.498;18.206;2023-09-07T10:01:41;100822.61;;;37.51;29.59
34103;BME280;20381;54.498;18.206;2023-09-07T10:04:15;100824.30;;;36.67;29.93
34103;BME280;20381;54.498;18.206;2023-09-07T10:07:00;100828.98;;;37.85;30.54
34103;BME280;20381;54.498;18.206;2023-09-07T10:09:32;100825.77;;;39.80;31.11
34103;BME280;20381;54.498;18.206;2023-09-07T10:12:01;100823.30;;;41.51;30.32
34103;BME280;20381;54.498;18.206;2023-09-07T10:14:40;100817.08;;;42.66;29.67
34103;BME280;20381;54.498;18.206;2023-09-07T10:17:09;100819.71;;;43.99;29.01
34103;BME280;20381;54.498;18.206;2023-09-07T10:19:38;100823.17;;;44.07;26.93
34103;BME280;20381;54.498;18.206;2023-09-07T10:22:08;100820.86;;;41.91;25.57
34103;BME280;20381;54.498;18.206;2023-09-07T10:24:36;100815.33;;;39.99;26.11
34103;BME280;20381;54.498;18.206;2023-09-07T10:27:08;100813.08;;;39.97;25.89
34103;BME280;20381;54.498;18.206;2023-09-07T10:29:42;100814.66;;;37.78;25.99
34103;BME280;20381;54.498;18.206;2023-09-07T10:32:12;100814.85;;;38.57;27.08
34103;BME280;20381;54.498;18.206;2023-09-07T10:34:46;100811.11;;;40.00;27.25
34103;BME280;20381;54.498;18.206;2023-09-07T10:37:15;100812.32;;;40.93;26.74
34103;BME280;20381;54.498;18.206;2023-09-07T10:39:44;100807.67;;;41.53;26.32
34103;BME280;20381;54.498;18.206;2023-09-07T10:42:20;100802.77;;;42.37;26.23
34103;BME280;20381;54.498;18.206;2023-09-07T10:44:50;100803.52;;;42.82;24.80
34103;BME280;20381;54.498;18.206;2023-09-07T10:47:19;100803.77;;;42.20;24.62
34103;BME280;20381;54.498;18.206;2023-09-07T10:49:47;100813.83;;;42.63;24.02
34103;BME280;20381;54.498;18.206;2023-09-07T10:52:16;100812.50;;;42.68;24.01
34103;BME280;20381;54.498;18.206;2023-09-07T10:54:45;100816.40;;;42.73;23.67
34103;BME280;20381;54.498;18.206;2023-09-07T10:57:13;100811.59;;;43.04;23.39
34103;BME280;20381;54.498;18.206;2023-09-07T10:59:46;100809.87;;;42.96;23.27
34103;BME280;20381;54.498;18.206;2023-09-07T11:02:15;100808.30;;;43.73;23.49
34103;BME280;20381;54.498;18.206;2023-09-07T11:04:44;100811.48;;;44.21;23.12
34103;BME280;20381;54.498;18.206;2023-09-07T11:07:13;100815.58;;;44.32;22.41
34103;BME280;20381;54.498;18.206;2023-09-07T11:09:44;100812.38;;;44.42;22.62
34103;BME280;20381;54.498;18.206;2023-09-07T11:12:14;100810.80;;;44.81;22.35
34103;BME280;20381;54.498;18.206;2023-09-07T11:14:47;100806.90;;;45.06;22.03
34103;BME280;20381;54.498;18.206;2023-09-07T11:17:26;100808.52;;;44.83;21.15
34103;BME280;20381;54.498;18.206;2023-09-07T11:19:58;100810.19;;;44.21;20.98
34103;BME280;20381;54.498;18.206;2023-09-07T11:22:26;100810.60;;;42.35;21.50
34103;BME280;20381;54.498;18.206;2023-09-07T11:24:55;100812.27;;;42.83;22.05
34103;BME280;20381;54.498;18.206;2023-09-07T11:27:24;100805.11;;;43.31;21.94
34103;BME280;20381;54.498;18.206;2023-09-07T11:30:00;100795.59;;;42.65;21.27
34103;BME280;20381;54.498;18.206;2023-09-07T11:32:34;100798.55;;;41.79;22.24
34103;BME280;20381;54.498;18.206;2023-09-07T11:35:03;100805.23;;;42.89;22.62
34103;BME280;20381;54.498;18.206;2023-09-07T11:37:35;100794.61;;;43.97;23.15
34103;BME280;20381;54.498;18.206;2023-09-07T11:40:04;100793.23;;;45.22;22.53
34103;BME280;20381;54.498;18.206;2023-09-07T11:42:40;100793.42;;;45.45;22.30
34103;BME280;20381;54.498;18.206;2023-09-07T11:45:09;100793.20;;;45.72;22.07
34103;BME280;20381;54.498;18.206;2023-09-07T11:47:39;100796.73;;;45.22;20.88
34103;BME280;20381;54.498;18.206;2023-09-07T11:50:07;100797.44;;;43.22;21.15
34103;BME280;20381;54.498;18.206;2023-09-07T11:52:36;100797.61;;;43.20;21.59
34103;BME280;20381;54.498;18.206;2023-09-07T11:55:04;100792.21;;;43.42;21.98
34103;BME280;20381;54.498;18.206;2023-09-07T11:57:33;100792.99;;;43.36;21.52
34103;BME280;20381;54.498;18.206;2023-09-07T12:00:03;100790.81;;;42.48;21.72
34103;BME280;20381;54.498;18.206;2023-09-07T12:02:33;100790.52;;;42.40;21.94
34103;BME280;20381;54.498;18.206;2023-09-07T12:05:02;100798.19;;;41.96;21.87
34103;BME280;20381;54.498;18.206;2023-09-07T12:07:31;100791.94;;;41.06;22.12
34103;BME280;20381;54.498;18.206;2023-09-07T12:10:00;100791.23;;;40.52;22.33
34103;BME280;20381;54.498;18.206;2023-09-07T12:12:28;100784.60;;;40.52;23.19
34103;BME280;20381;54.498;18.206;2023-09-07T12:14:56;100790.52;;;41.08;23.17
34103;BME280;20381;54.498;18.206;2023-09-07T12:17:25;100785.30;;;41.04;23.34
34103;BME280;20381;54.498;18.206;2023-09-07T12:19:53;100790.59;;;41.14;23.38
34103;BME280;20381;54.498;18.206;2023-09-07T12:22:22;100786.63;;;40.66;23.53
34103;BME280;20381;54.498;18.206;2023-09-07T12:24:50;100788.18;;;39.92;23.38
34103;BME280;20381;54.498;18.206;2023-09-07T12:27:39;100783.55;;;37.98;23.46
34103;BME280;20381;54.498;18.206;2023-09-07T12:30:21;100784.68;;;35.02;24.40
34103;BME280;20381;54.498;18.206;2023-09-07T12:32:52;100786.52;;;32.54;26.06
34103;BME280;20381;54.498;18.206;2023-09-07T12:35:21;100793.10;;;30.14;28.58
34103;BME280;20381;54.498;18.206;2023-09-07T12:37:50;100790.21;;;28.61;30.51
34103;BME280;20381;54.498;18.206;2023-09-07T12:40:19;100795.89;;;27.80;32.47
34103;BME280;20381;54.498;18.206;2023-09-07T12:42:47;100790.77;;;27.05;33.70
34103;BME280;20381;54.498;18.206;2023-09-07T12:45:16;100791.13;;;26.63;34.89
34103;BME280;20381;54.498;18.206;2023-09-07T12:47:44;100791.28;;;25.98;36.52
34103;BME280;20381;54.498;18.206;2023-09-07T12:50:13;100789.54;;;25.67;37.72
34103;BME280;20381;54.498;18.206;2023-09-07T12:52:42;100794.08;;;25.69;38.20